sensor_id;sensor_type;location;lat;lon;timestamp;temperature;humidity
15115;DHT22;7658;51.456;7.622;2022-08-19T00:00:14;17.20;99.90
15115;DHT22;7658;51.456;7.622;2022-08-19T00:02:41;17.20;99.90
15115;DHT22;7658;51.456;7.622;2022-08-19T00:05:10;17.00;99.90
15115;DHT22;7658;51.456;7.622;2022-08-19T00:07:38;16.90;99.90
15115;DHT22;7658;51.456;7.622;2022-08-19T00:10:06;16.90;99.90
15115;DHT22;7658;51.456;7.622;2022-08-19T00:12:32;16.90;99.90
15115;DHT22;7658;51.456;7.622;2022-08-19T00:14:58;16.90;99.90
15115;DHT22;7658;51.456;7.622;2022-08-19T00:17:24;16.80;99.90
15115;DHT22;7658;51.456;7.622;2022-08-19T00:19:49;16.80;99.90
15115;DHT22;7658;51.456;7.622;2022-08-19T00:22:15;16.60;99.90
15115;DHT22;7658;51.456;7.622;2022-08-19T00:24:46;16.60;99.90
15115;DHT22;7658;51.456;7.622;2022-08-19T00:27:12;16.60;99.90
15115;DHT22;7658;51.456;7.622;2022-08-19T00:29:38;16.70;99.90
15115;DHT22;7658;51.456;7.622;2022-08-19T00:32:05;16.70;99.90
15115;DHT22;7658;51.456;7.622;2022-08-19T00:34:32;16.70;99.90
15115;DHT22;7658;51.456;7.622;2022-08-19T00:36:58;16.70;99.90
15115;DHT22;7658;51.456;7.622;2022-08-19T00:39:24;16.70;99.90
15115;DHT22;7658;51.456;7.622;2022-08-19T00:41:50;16.80;99.90
15115;DHT22;7658;51.456;7.622;2022-08-19T00:44:20;16.70;99.90
15115;DHT22;7658;51.456;7.622;2022-08-19T00:46:48;16.70;99.90
15115;DHT22;7658;51.456;7.622;2022-08-19T00:49:16;16.70;99.90
15115;DHT22;7658;51.456;7.622;2022-08-19T00:51:46;16.80;99.90
15115;DHT22;7658;51.456;7.622;2022-08-19T00:54:12;16.80;99.90
15115;DHT22;7658;51.456;7.622;2022-08-19T00:56:38;16.70;99.90
15115;DHT22;7658;51.456;7.622;2022-08-19T00:59:05;16.70;99.90
15115;DHT22;7658;51.456;7.622;2022-08-19T01:01:40;16.70;99.90
15115;DHT22;7658;51.456;7.622;2022-08-19T01:04:07;16.60;99.90
15115;DHT22;7658;51.456;7.622;2022-08-19T01:06:35;16.60;99.90
15115;DHT22;7658;51.456;7.622;2022-08-19T01:09:01;16.50;99.90
15115;DHT22;7658;51.456;7.622;2022-08-19T01:11:27;16.50;99.90
15115;DHT22;7658;51.456;7.622;2022-08-19T01:13:54;16.50;99.90
15115;DHT22;7658;51.456;7.622;2022-08-19T01:16:22;16.50;99.90
15115;DHT22;7658;51.456;7.622;2022-08-19T01:18:49;16.40;99.90
15115;DHT22;7658;51.456;7.622;2022-08-19T01:21:21;16.40;99.90
15115;DHT22;7658;51.456;7.622;2022-08-19T01:23:47;16.40;99.90
15115;DHT22;7658;51.456;7.622;2022-08-19T01:26:20;16.30;99.90
15115;DHT22;7658;51.456;7.622;2022-08-19T01:28:49;16.30;99.90
15115;DHT22;7658;51.456;7.622;2022-08-19T01:31:19;16.40;99.90
15115;DHT22;7658;51.456;7.622;2022-08-19T01:33:47;16.40;99.90
15115;DHT22;7658;51.456;7.622;2022-08-19T01:36:16;16.40;99.90
15115;DHT22;7658;51.456;7.622;2022-08-19T01:38:47;16.40;99.90
15115;DHT22;7658;51.456;7.622;2022-08-19T01:41:15;16.40;99.90
15115;DHT22;7658;51.456;7.622;2022-08-19T01:43:42;16.40;99.90
15115;DHT22;7658;51.456;7.622;2022-08-19T01:46:08;16.40;99.90
15115;DHT22;7658;51.456;7.622;2022-08-19T01:48:40;16.40;99.90
15115;DHT22;7658;51.456;7.622;2022-08-19T01:51:07;16.30;99.90
15115;DHT22;7658;51.456;7.622;2022-08-19T01:53:34;16.30;99.90
15115;DHT22;7658;51.456;7.622;2022-08-19T01:56:00;16.20;99.90
15115;DHT22;7658;51.456;7.622;2022-08-19T01:58:30;16.20;99.90
15115;DHT22;7658;51.456;7.622;2022-08-19T02:00:58;16.10;99.90
15115;DHT22;7658;51.456;7.622;2022-08-19T02:03:24;16.10;99.90
15115;DHT22;7658;51.456;7.622;2022-08-19T02:05:57;16.10;99.90
15115;DHT22;7658;51.456;7.622;2022-08-19T02:08:24;16.10;99.90
15115;DHT22;7658;51.456;7.622;2022-08-19T02:10:49;16.10;99.90
15115;DHT22;7658;51.456;7.622;2022-08-19T02:13:15;16.10;99.90
15115;DHT22;7658;51.456;7.622;2022-08-19T02:15:41;16.00;99.90
15115;DHT22;7658;51.456;7.622;2022-08-19T02:18:07;16.00;99.90
15115;DHT22;7658;51.456;7.622;2022-08-19T02:20:34;16.00;99.90
15115;DHT22;7658;51.456;7.622;2022-08-19T02:23:00;15.90;99.90
15115;DHT22;7658;51.456;7.622;2022-08-19T02:25:26;15.90;99.90
15115;DHT22;7658;51.456;7.622;2022-08-19T02:27:52;15.90;99.90
15115;DHT22;7658;51.456;7.622;2022-08-19T02:30:20;15.80;99.90
15115;DHT22;7658;51.456;7.622;2022-08-19T02:32:46;15.80;99.90
15115;DHT22;7658;51.456;7.622;2022-08-19T02:35:13;15.80;99.90
15115;DHT22;7658;51.456;7.622;2022-08-19T02:37:41;15.80;99.90
15115;DHT22;7658;51.456;7.622;2022-08-19T02:40:26;15.80;99.90
15115;DHT22;7658;51.456;7.622;2022-08-19T02:42:52;15.90;99.90
15115;DHT22;7658;51.456;7.622;2022-08-19T02:45:18;15.80;99.90
15115;DHT22;7658;51.456;7.622;2022-08-19T02:47:44;15.80;99.90
15115;DHT22;7658;51.456;7.622;2022-08-19T02:50:10;15.80;99.90
15115;DHT22;7658;51.456;7.622;2022-08-19T02:52:36;15.70;99.90
15115;DHT22;7658;51.456;7.622;2022-08-19T02:55:02;15.70;99.90
15115;DHT22;7658;51.456;7.622;2022-08-19T02:57:30;15.60;99.90
15115;DHT22;7658;51.456;7.622;2022-08-19T02:59:57;15.70;99.90
15115;DHT22;7658;51.456;7.622;2022-08-19T03:02:23;15.70;99.90
15115;DHT22;7658;51.456;7.622;2022-08-19T03:04:49;15.70;99.90
15115;DHT22;7658;51.456;7.622;2022-08-19T03:07:17;15.70;99.90
15115;DHT22;7658;51.456;7.622;2022-08-19T03:09:43;15.70;99.90
15115;DHT22;7658;51.456;7.622;2022-08-19T03:12:10;15.80;99.90
15115;DHT22;7658;51.456;7.622;2022-08-19T03:14:36;15.80;99.90
15115;DHT22;7658;51.456;7.622;2022-08-19T03:17:03;15.80;99.90
15115;DHT22;7658;51.456;7.622;2022-08-19T03:19:30;15.80;99.90
15115;DHT22;7658;51.456;7.622;2022-08-19T03:21:57;15.80;99.90
15115;DHT22;7658;51.456;7.622;2022-08-19T03:24:23;15.80;99.90
15115;DHT22;7658;51.456;7.622;2022-08-19T03:26:52;15.80;99.90
15115;DHT22;7658;51.456;7.622;2022-08-19T03:29:19;15.70;99.90
15115;DHT22;7658;51.456;7.622;2022-08-19T03:31:45;15.70;99.90
15115;DHT22;7658;51.456;7.622;2022-08-19T03:34:16;15.70;99.90
15115;DHT22;7658;51.456;7.622;2022-08-19T03:36:43;15.60;99.90
15115;DHT22;7658;51.456;7.622;2022-08-19T03:39:10;15.50;99.90
15115;DHT22;7658;51.456;7.622;2022-08-19T03:41:39;15.50;99.90
15115;DHT22;7658;51.456;7.622;2022-08-19T03:44:05;15.40;99.90
15115;DHT22;7658;51.456;7.622;2022-08-19T03:46:33;15.40;99.90
15115;DHT22;7658;51.456;7.622;2022-08-19T03:49:01;15.30;99.90
15115;DHT22;7658;51.456;7.622;2022-08-19T03:51:31;15.30;99.90
15115;DHT22;7658;51.456;7.622;2022-08-19T03:53:59;15.30;99.90
15115;DHT22;7658;51.456;7.622;2022-08-19T03:56:27;15.30;99.90
15115;DHT22;7658;51.456;7.622;2022-08-19T03:58:57;15.30;99.90
15115;DHT22;7658;51.456;7.622;2022-08-19T04:01:25;15.40;99.90
15115;DHT22;7658;51.456;7.622;2022-08-19T04:03:52;15.40;99.90
15115;DHT22;7658;51.456;7.622;2022-08-19T04:06:22;15.40;99.90
15115;DHT22;7658;51.456;7.622;2022-08-19T04:08:49;15.40;99.90
15115;DHT22;7658;51.456;7.622;2022-08-19T04:11:27;15.40;99.90
15115;DHT22;7658;51.456;7.622;2022-08-19T04:13:54;15.40;99.90
15115;DHT22;7658;51.456;7.622;2022-08-19T04:16:25;15.40;99.90
15115;DHT22;7658;51.456;7.622;2022-08-19T04:18:59;15.30;99.90
15115;DHT22;7658;51.456;7.622;2022-08-19T04:21:27;15.30;99.90
15115;DHT22;7658;51.456;7.622;2022-08-19T04:23:54;15.30;99.90
15115;DHT22;7658;51.456;7.622;2022-08-19T04:26:24;15.20;99.90
15115;DHT22;7658;51.456;7.622;2022-08-19T04:28:51;15.20;99.90
15115;DHT22;7658;51.456;7.622;2022-08-19T04:31:21;15.20;99.90
15115;DHT22;7658;51.456;7.622;2022-08-19T04:33:47;15.20;99.90
15115;DHT22;7658;51.456;7.622;2022-08-19T04:36:17;15.30;99.90
15115;DHT22;7658;51.456;7.622;2022-08-19T04:38:47;15.30;99.90
15115;DHT22;7658;51.456;7.622;2022-08-19T04:41:13;15.30;99.90
15115;DHT22;7658;51.456;7.622;2022-08-19T04:44:11;15.40;99.90
15115;DHT22;7658;51.456;7.622;2022-08-19T04:46:38;15.40;99.90
15115;DHT22;7658;51.456;7.622;2022-08-19T04:49:06;15.40;99.90
15115;DHT22;7658;51.456;7.622;2022-08-19T04:51:33;15.40;99.90
15115;DHT22;7658;51.456;7.622;2022-08-19T04:53:59;15.40;99.90
15115;DHT22;7658;51.456;7.622;2022-08-19T04:56:26;15.40;99.90
15115;DHT22;7658;51.456;7.622;2022-08-19T04:58:54;15.40;99.90
15115;DHT22;7658;51.456;7.622;2022-08-19T05:01:23;15.40;99.90
15115;DHT22;7658;51.456;7.622;2022-08-19T05:03:50;15.40;99.90
15115;DHT22;7658;51.456;7.622;2022-08-19T05:06:17;15.40;99.90
15115;DHT22;7658;51.456;7.622;2022-08-19T05:08:44;15.50;99.90
15115;DHT22;7658;51.456;7.622;2022-08-19T05:11:14;15.50;99.90
15115;DHT22;7658;51.456;7.622;2022-08-19T05:13:40;15.50;99.90
15115;DHT22;7658;51.456;7.622;2022-08-19T05:16:06;15.50;99.90
15115;DHT22;7658;51.456;7.622;2022-08-19T05:18:32;15.50;99.90
15115;DHT22;7658;51.456;7.622;2022-08-19T05:21:18;15.50;99.90
15115;DHT22;7658;51.456;7.622;2022-08-19T05:24:04;15.50;99.90
15115;DHT22;7658;51.456;7.622;2022-08-19T05:26:34;15.40;99.90
15115;DHT22;7658;51.456;7.622;2022-08-19T05:29:00;15.40;99.90
15115;DHT22;7658;51.456;7.622;2022-08-19T05:31:26;15.40;99.90
15115;DHT22;7658;51.456;7.622;2022-08-19T05:33:52;15.40;99.90
15115;DHT22;7658;51.456;7.622;2022-08-19T05:36:17;15.40;99.90
15115;DHT22;7658;51.456;7.622;2022-08-19T05:38:45;15.30;99.90
15115;DHT22;7658;51.456;7.622;2022-08-19T05:41:14;15.30;99.90
15115;DHT22;7658;51.456;7.622;2022-08-19T05:43:42;15.40;99.90
15115;DHT22;7658;51.456;7.622;2022-08-19T05:46:17;15.50;99.90
15115;DHT22;7658;51.456;7.622;2022-08-19T05:48:44;15.60;99.90
15115;DHT22;7658;51.456;7.622;2022-08-19T05:51:09;15.60;99.90
15115;DHT22;7658;51.456;7.622;2022-08-19T05:53:36;15.70;99.90
15115;DHT22;7658;51.456;7.622;2022-08-19T05:56:10;15.80;99.90
15115;DHT22;7658;51.456;7.622;2022-08-19T05:58:36;15.80;99.90
15115;DHT22;7658;51.456;7.622;2022-08-19T06:01:04;15.90;99.90
15115;DHT22;7658;51.456;7.622;2022-08-19T06:03:32;16.00;99.90
15115;DHT22;7658;51.456;7.622;2022-08-19T06:05:59;16.00;99.90
15115;DHT22;7658;51.456;7.622;2022-08-19T06:08:28;16.10;99.90
15115;DHT22;7658;51.456;7.622;2022-08-19T06:10:54;16.20;99.90
15115;DHT22;7658;51.456;7.622;2022-08-19T06:13:21;16.10;99.90
15115;DHT22;7658;51.456;7.622;2022-08-19T06:15:48;16.20;99.90
15115;DHT22;7658;51.456;7.622;2022-08-19T06:18:14;16.20;99.90
15115;DHT22;7658;51.456;7.622;2022-08-19T06:20:41;16.30;99.90
15115;DHT22;7658;51.456;7.622;2022-08-19T06:23:08;16.30;99.90
15115;DHT22;7658;51.456;7.622;2022-08-19T06:25:35;16.30;99.90
15115;DHT22;7658;51.456;7.622;2022-08-19T06:28:01;16.30;99.90
15115;DHT22;7658;51.456;7.622;2022-08-19T06:30:27;16.40;99.90
15115;DHT22;7658;51.456;7.622;2022-08-19T06:32:53;16.40;99.90
15115;DHT22;7658;51.456;7.622;2022-08-19T06:35:19;16.50;99.90
15115;DHT22;7658;51.456;7.622;2022-08-19T06:37:45;16.40;99.90
15115;DHT22;7658;51.456;7.622;2022-08-19T06:40:11;16.50;99.90
15115;DHT22;7658;51.456;7.622;2022-08-19T06:42:38;16.50;99.90
15115;DHT22;7658;51.456;7.622;2022-08-19T06:45:05;16.60;99.90
15115;DHT22;7658;51.456;7.622;2022-08-19T06:47:31;16.60;99.90
15115;DHT22;7658;51.456;7.622;2022-08-19T06:50:00;16.70;99.90
15115;DHT22;7658;51.456;7.622;2022-08-19T06:52:29;16.80;99.90
15115;DHT22;7658;51.456;7.622;2022-08-19T06:54:55;16.80;99.90
15115;DHT22;7658;51.456;7.622;2022-08-19T06:57:22;16.90;99.90
15115;DHT22;7658;51.456;7.622;2022-08-19T06:59:48;17.00;99.90
15115;DHT22;7658;51.456;7.622;2022-08-19T07:02:14;17.00;99.90
15115;DHT22;7658;51.456;7.622;2022-08-19T07:04:39;17.00;99.90
15115;DHT22;7658;51.456;7.622;2022-08-19T07:07:08;17.20;99.90
15115;DHT22;7658;51.456;7.622;2022-08-19T07:09:36;17.20;99.90
15115;DHT22;7658;51.456;7.622;2022-08-19T07:12:03;17.40;99.90
15115;DHT22;7658;51.456;7.622;2022-08-19T07:14:29;17.60;99.90
15115;DHT22;7658;51.456;7.622;2022-08-19T07:16:56;17.70;99.90
15115;DHT22;7658;51.456;7.622;2022-08-19T07:19:24;17.80;99.90
15115;DHT22;7658;51.456;7.622;2022-08-19T07:21:53;18.00;99.90
15115;DHT22;7658;51.456;7.622;2022-08-19T07:24:21;18.10;99.90
15115;DHT22;7658;51.456;7.622;2022-08-19T07:26:51;18.30;99.90
15115;DHT22;7658;51.456;7.622;2022-08-19T07:29:18;18.60;99.90
15115;DHT22;7658;51.456;7.622;2022-08-19T07:31:44;18.80;99.90
15115;DHT22;7658;51.456;7.622;2022-08-19T07:34:11;19.00;99.90
15115;DHT22;7658;51.456;7.622;2022-08-19T07:36:41;19.20;99.90
15115;DHT22;7658;51.456;7.622;2022-08-19T07:39:14;19.30;99.90
15115;DHT22;7658;51.456;7.622;2022-08-19T07:41:41;19.50;99.90
15115;DHT22;7658;51.456;7.622;2022-08-19T07:44:08;19.70;99.90
15115;DHT22;7658;51.456;7.622;2022-08-19T07:46:37;19.90;99.90
15115;DHT22;7658;51.456;7.622;2022-08-19T07:49:05;20.10;99.90
15115;DHT22;7658;51.456;7.622;2022-08-19T07:51:31;20.30;99.90
15115;DHT22;7658;51.456;7.622;2022-08-19T07:53:57;20.40;99.90
15115;DHT22;7658;51.456;7.622;2022-08-19T07:56:23;20.50;99.90
15115;DHT22;7658;51.456;7.622;2022-08-19T07:58:51;20.60;99.90
15115;DHT22;7658;51.456;7.622;2022-08-19T08:01:21;20.80;99.90
15115;DHT22;7658;51.456;7.622;2022-08-19T08:03:49;20.90;99.90
15115;DHT22;7658;51.456;7.622;2022-08-19T08:06:34;20.90;99.90
15115;DHT22;7658;51.456;7.622;2022-08-19T08:09:22;21.00;99.90
15115;DHT22;7658;51.456;7.622;2022-08-19T08:11:50;21.10;99.90
15115;DHT22;7658;51.456;7.622;2022-08-19T08:14:47;21.30;99.90
15115;DHT22;7658;51.456;7.622;2022-08-19T08:17:19;21.40;99.90
15115;DHT22;7658;51.456;7.622;2022-08-19T08:19:46;21.40;99.90
15115;DHT22;7658;51.456;7.622;2022-08-19T08:22:15;21.50;99.90
15115;DHT22;7658;51.456;7.622;2022-08-19T08:25:08;21.50;99.90
15115;DHT22;7658;51.456;7.622;2022-08-19T08:27:41;21.60;99.90
15115;DHT22;7658;51.456;7.622;2022-08-19T08:30:11;21.70;99.90
15115;DHT22;7658;51.456;7.622;2022-08-19T08:32:38;21.70;99.90
15115;DHT22;7658;51.456;7.622;2022-08-19T08:35:11;21.80;99.90
15115;DHT22;7658;51.456;7.622;2022-08-19T08:37:37;21.80;99.90
15115;DHT22;7658;51.456;7.622;2022-08-19T08:40:29;21.90;99.90
15115;DHT22;7658;51.456;7.622;2022-08-19T08:45:49;22.10;99.90
15115;DHT22;7658;51.456;7.622;2022-08-19T08:48:27;22.10;99.90
15115;DHT22;7658;51.456;7.622;2022-08-19T08:50:57;22.10;99.90
15115;DHT22;7658;51.456;7.622;2022-08-19T08:53:25;22.20;99.90
15115;DHT22;7658;51.456;7.622;2022-08-19T08:55:51;22.30;99.90
15115;DHT22;7658;51.456;7.622;2022-08-19T09:01:21;22.40;99.90
15115;DHT22;7658;51.456;7.622;2022-08-19T09:03:48;22.60;99.90
15115;DHT22;7658;51.456;7.622;2022-08-19T09:06:20;22.50;99.90
15115;DHT22;7658;51.456;7.622;2022-08-19T09:12:06;22.80;99.90
15115;DHT22;7658;51.456;7.622;2022-08-19T09:17:09;23.10;99.90
15115;DHT22;7658;51.456;7.622;2022-08-19T09:22:21;23.50;99.90
15115;DHT22;7658;51.456;7.622;2022-08-19T09:24:49;23.50;99.90
15115;DHT22;7658;51.456;7.622;2022-08-19T09:27:16;23.60;99.90
15115;DHT22;7658;51.456;7.622;2022-08-19T09:29:42;23.70;99.90
15115;DHT22;7658;51.456;7.622;2022-08-19T09:32:08;24.00;99.90
15115;DHT22;7658;51.456;7.622;2022-08-19T09:34:33;23.90;99.90
15115;DHT22;7658;51.456;7.622;2022-08-19T09:36:59;23.70;99.90
15115;DHT22;7658;51.456;7.622;2022-08-19T09:39:25;23.60;99.90
15115;DHT22;7658;51.456;7.622;2022-08-19T09:41:51;23.50;99.90
15115;DHT22;7658;51.456;7.622;2022-08-19T09:44:18;23.70;99.90
15115;DHT22;7658;51.456;7.622;2022-08-19T09:46:46;23.90;99.90
15115;DHT22;7658;51.456;7.622;2022-08-19T09:49:16;23.90;99.90
15115;DHT22;7658;51.456;7.622;2022-08-19T09:51:49;24.00;99.90
15115;DHT22;7658;51.456;7.622;2022-08-19T09:54:15;23.80;99.90
15115;DHT22;7658;51.456;7.622;2022-08-19T09:56:40;23.60;99.90
15115;DHT22;7658;51.456;7.622;2022-08-19T09:59:06;23.80;99.90
15115;DHT22;7658;51.456;7.622;2022-08-19T10:01:32;23.80;99.90
15115;DHT22;7658;51.456;7.622;2022-08-19T10:04:00;23.90;99.90
15115;DHT22;7658;51.456;7.622;2022-08-19T10:06:29;24.10;99.90
15115;DHT22;7658;51.456;7.622;2022-08-19T10:08:59;24.10;99.90
15115;DHT22;7658;51.456;7.622;2022-08-19T10:11:25;23.90;99.90
15115;DHT22;7658;51.456;7.622;2022-08-19T10:13:52;23.70;99.90
15115;DHT22;7658;51.456;7.622;2022-08-19T10:16:20;23.70;99.90
15115;DHT22;7658;51.456;7.622;2022-08-19T10:18:48;23.70;99.90
15115;DHT22;7658;51.456;7.622;2022-08-19T10:21:18;24.00;99.90
15115;DHT22;7658;51.456;7.622;2022-08-19T10:23:48;24.20;99.90
15115;DHT22;7658;51.456;7.622;2022-08-19T10:26:19;24.50;99.90
15115;DHT22;7658;51.456;7.622;2022-08-19T10:28:45;24.80;99.90
15115;DHT22;7658;51.456;7.622;2022-08-19T10:31:18;25.00;99.90
15115;DHT22;7658;51.456;7.622;2022-08-19T10:33:48;25.00;99.90
15115;DHT22;7658;51.456;7.622;2022-08-19T10:36:17;25.00;99.90
15115;DHT22;7658;51.456;7.622;2022-08-19T10:38:45;24.80;99.90
15115;DHT22;7658;51.456;7.622;2022-08-19T10:41:14;24.60;99.90
15115;DHT22;7658;51.456;7.622;2022-08-19T10:43:41;24.50;99.90
15115;DHT22;7658;51.456;7.622;2022-08-19T10:46:09;24.60;99.90
15115;DHT22;7658;51.456;7.622;2022-08-19T10:48:35;24.80;99.90
15115;DHT22;7658;51.456;7.622;2022-08-19T10:51:02;24.90;99.90
15115;DHT22;7658;51.456;7.622;2022-08-19T10:53:46;24.90;99.90
15115;DHT22;7658;51.456;7.622;2022-08-19T10:56:12;24.80;99.90
15115;DHT22;7658;51.456;7.622;2022-08-19T10:58:56;24.60;99.90
15115;DHT22;7658;51.456;7.622;2022-08-19T11:01:24;24.40;99.90
15115;DHT22;7658;51.456;7.622;2022-08-19T11:03:50;24.30;99.90
15115;DHT22;7658;51.456;7.622;2022-08-19T11:06:16;24.20;99.90
15115;DHT22;7658;51.456;7.622;2022-08-19T11:08:41;24.30;99.90
15115;DHT22;7658;51.456;7.622;2022-08-19T11:11:11;24.30;99.90
15115;DHT22;7658;51.456;7.622;2022-08-19T11:13:41;24.30;99.90
15115;DHT22;7658;51.456;7.622;2022-08-19T11:16:12;24.40;99.90
15115;DHT22;7658;51.456;7.622;2022-08-19T11:18:42;24.60;99.90
15115;DHT22;7658;51.456;7.622;2022-08-19T11:23:39;24.90;99.90
15115;DHT22;7658;51.456;7.622;2022-08-19T11:26:05;25.00;99.90
15115;DHT22;7658;51.456;7.622;2022-08-19T11:28:31;25.20;99.90
15115;DHT22;7658;51.456;7.622;2022-08-19T11:30:57;25.20;99.90
15115;DHT22;7658;51.456;7.622;2022-08-19T11:33:23;25.60;99.90
15115;DHT22;7658;51.456;7.622;2022-08-19T11:35:50;26.00;99.90
15115;DHT22;7658;51.456;7.622;2022-08-19T11:38:16;26.30;99.90
15115;DHT22;7658;51.456;7.622;2022-08-19T11:40:43;26.30;99.90
15115;DHT22;7658;51.456;7.622;2022-08-19T11:43:09;26.30;99.90
15115;DHT22;7658;51.456;7.622;2022-08-19T11:45:35;26.30;99.90
15115;DHT22;7658;51.456;7.622;2022-08-19T11:48:01;26.30;99.90
15115;DHT22;7658;51.456;7.622;2022-08-19T11:50:27;26.40;99.90
15115;DHT22;7658;51.456;7.622;2022-08-19T11:52:54;26.30;99.90
15115;DHT22;7658;51.456;7.622;2022-08-19T11:55:20;26.30;99.90
15115;DHT22;7658;51.456;7.622;2022-08-19T11:57:46;26.10;99.90
15115;DHT22;7658;51.456;7.622;2022-08-19T12:00:13;26.00;99.90
15115;DHT22;7658;51.456;7.622;2022-08-19T12:02:39;26.10;99.90
15115;DHT22;7658;51.456;7.622;2022-08-19T12:05:06;26.30;99.90
15115;DHT22;7658;51.456;7.622;2022-08-19T12:07:33;26.80;99.90
15115;DHT22;7658;51.456;7.622;2022-08-19T12:09:59;27.20;99.90
15115;DHT22;7658;51.456;7.622;2022-08-19T12:12:26;27.20;99.90
15115;DHT22;7658;51.456;7.622;2022-08-19T12:14:53;27.20;99.90
15115;DHT22;7658;51.456;7.622;2022-08-19T12:17:26;26.90;99.90
15115;DHT22;7658;51.456;7.622;2022-08-19T12:19:53;26.90;99.90
15115;DHT22;7658;51.456;7.622;2022-08-19T12:22:18;26.80;99.90
15115;DHT22;7658;51.456;7.622;2022-08-19T12:24:46;26.50;99.90
15115;DHT22;7658;51.456;7.622;2022-08-19T12:27:13;26.40;99.90
15115;DHT22;7658;51.456;7.622;2022-08-19T12:29:39;26.10;99.90
15115;DHT22;7658;51.456;7.622;2022-08-19T12:32:08;26.10;99.90
15115;DHT22;7658;51.456;7.622;2022-08-19T12:34:34;26.20;99.90
15115;DHT22;7658;51.456;7.622;2022-08-19T12:37:04;26.50;99.90
15115;DHT22;7658;51.456;7.622;2022-08-19T12:39:33;26.60;99.90
15115;DHT22;7658;51.456;7.622;2022-08-19T12:41:59;26.30;99.90
15115;DHT22;7658;51.456;7.622;2022-08-19T12:44:25;26.00;99.90
15115;DHT22;7658;51.456;7.622;2022-08-19T12:46:51;26.00;99.90
15115;DHT22;7658;51.456;7.622;2022-08-19T12:49:16;26.30;99.90
15115;DHT22;7658;51.456;7.622;2022-08-19T12:51:42;26.80;99.90
15115;DHT22;7658;51.456;7.622;2022-08-19T12:54:08;27.20;99.90
15115;DHT22;7658;51.456;7.622;2022-08-19T12:56:34;27.40;99.90
15115;DHT22;7658;51.456;7.622;2022-08-19T12:59:04;27.70;99.90
15115;DHT22;7658;51.456;7.622;2022-08-19T13:01:30;27.70;99.90
15115;DHT22;7658;51.456;7.622;2022-08-19T13:03:58;27.70;99.90
15115;DHT22;7658;51.456;7.622;2022-08-19T13:06:25;27.20;99.90
15115;DHT22;7658;51.456;7.622;2022-08-19T13:08:51;27.30;99.90
15115;DHT22;7658;51.456;7.622;2022-08-19T13:11:19;27.40;99.90
15115;DHT22;7658;51.456;7.622;2022-08-19T13:13:47;27.80;99.90
15115;DHT22;7658;51.456;7.622;2022-08-19T13:16:14;28.00;99.90
15115;DHT22;7658;51.456;7.622;2022-08-19T13:18:41;28.20;99.90
15115;DHT22;7658;51.456;7.622;2022-08-19T13:21:09;28.30;99.90
15115;DHT22;7658;51.456;7.622;2022-08-19T13:23:36;28.30;99.90
15115;DHT22;7658;51.456;7.622;2022-08-19T13:26:05;28.70;99.90
15115;DHT22;7658;51.456;7.622;2022-08-19T13:28:32;28.80;99.90
15115;DHT22;7658;51.456;7.622;2022-08-19T13:31:18;28.70;99.90
15115;DHT22;7658;51.456;7.622;2022-08-19T13:34:03;28.40;99.90
15115;DHT22;7658;51.456;7.622;2022-08-19T13:36:30;27.90;99.90
15115;DHT22;7658;51.456;7.622;2022-08-19T13:38:55;27.60;99.90
15115;DHT22;7658;51.456;7.622;2022-08-19T13:41:21;27.20;99.90
15115;DHT22;7658;51.456;7.622;2022-08-19T13:43:47;26.80;99.90
15115;DHT22;7658;51.456;7.622;2022-08-19T13:46:15;26.60;99.90
15115;DHT22;7658;51.456;7.622;2022-08-19T13:48:41;26.30;99.90
15115;DHT22;7658;51.456;7.622;2022-08-19T13:51:08;26.50;99.90
15115;DHT22;7658;51.456;7.622;2022-08-19T13:53:37;26.90;99.90
15115;DHT22;7658;51.456;7.622;2022-08-19T13:56:08;26.80;99.90
15115;DHT22;7658;51.456;7.622;2022-08-19T13:58:33;27.00;99.90
15115;DHT22;7658;51.456;7.622;2022-08-19T14:00:59;27.50;99.90
15115;DHT22;7658;51.456;7.622;2022-08-19T14:03:26;28.10;99.90
15115;DHT22;7658;51.456;7.622;2022-08-19T14:05:52;28.40;99.90
15115;DHT22;7658;51.456;7.622;2022-08-19T14:08:19;28.50;99.90
15115;DHT22;7658;51.456;7.622;2022-08-19T14:10:45;28.70;99.90
15115;DHT22;7658;51.456;7.622;2022-08-19T14:13:15;28.80;99.90
15115;DHT22;7658;51.456;7.622;2022-08-19T14:15:41;29.00;99.90
15115;DHT22;7658;51.456;7.622;2022-08-19T14:18:06;28.70;99.90
15115;DHT22;7658;51.456;7.622;2022-08-19T14:20:36;28.40;99.90
15115;DHT22;7658;51.456;7.622;2022-08-19T14:23:02;28.40;99.90
15115;DHT22;7658;51.456;7.622;2022-08-19T14:25:29;28.60;99.90
15115;DHT22;7658;51.456;7.622;2022-08-19T14:27:57;29.00;99.90
15115;DHT22;7658;51.456;7.622;2022-08-19T14:30:28;29.20;99.90
15115;DHT22;7658;51.456;7.622;2022-08-19T14:32:56;29.10;99.90
15115;DHT22;7658;51.456;7.622;2022-08-19T14:35:22;29.10;99.90
15115;DHT22;7658;51.456;7.622;2022-08-19T14:37:49;28.70;99.90
15115;DHT22;7658;51.456;7.622;2022-08-19T14:40:17;28.20;99.90
15115;DHT22;7658;51.456;7.622;2022-08-19T14:42:46;27.90;99.90
15115;DHT22;7658;51.456;7.622;2022-08-19T14:45:13;27.40;99.90
15115;DHT22;7658;51.456;7.622;2022-08-19T14:47:39;27.10;99.90
15115;DHT22;7658;51.456;7.622;2022-08-19T14:50:10;27.10;99.90
15115;DHT22;7658;51.456;7.622;2022-08-19T14:52:35;27.30;99.90
15115;DHT22;7658;51.456;7.622;2022-08-19T14:55:02;27.30;99.90
15115;DHT22;7658;51.456;7.622;2022-08-19T14:57:28;27.60;99.90
15115;DHT22;7658;51.456;7.622;2022-08-19T14:59:56;27.90;99.90
15115;DHT22;7658;51.456;7.622;2022-08-19T15:02:24;28.20;99.90
15115;DHT22;7658;51.456;7.622;2022-08-19T15:04:50;28.10;99.90
15115;DHT22;7658;51.456;7.622;2022-08-19T15:07:16;27.80;99.90
15115;DHT22;7658;51.456;7.622;2022-08-19T15:09:41;27.50;99.90
15115;DHT22;7658;51.456;7.622;2022-08-19T15:12:07;27.20;99.90
15115;DHT22;7658;51.456;7.622;2022-08-19T15:14:36;27.00;99.90
15115;DHT22;7658;51.456;7.622;2022-08-19T15:17:04;26.90;99.90
15115;DHT22;7658;51.456;7.622;2022-08-19T15:19:31;26.80;99.90
15115;DHT22;7658;51.456;7.622;2022-08-19T15:21:58;26.60;99.90
15115;DHT22;7658;51.456;7.622;2022-08-19T15:24:24;26.50;99.90
15115;DHT22;7658;51.456;7.622;2022-08-19T15:26:53;26.50;99.90
15115;DHT22;7658;51.456;7.622;2022-08-19T15:29:21;26.40;99.90
15115;DHT22;7658;51.456;7.622;2022-08-19T15:31:53;26.40;99.90
15115;DHT22;7658;51.456;7.622;2022-08-19T15:34:22;26.40;99.90
15115;DHT22;7658;51.456;7.622;2022-08-19T15:36:50;26.40;99.90
15115;DHT22;7658;51.456;7.622;2022-08-19T15:39:16;26.40;99.90
15115;DHT22;7658;51.456;7.622;2022-08-19T15:41:44;26.40;99.90
15115;DHT22;7658;51.456;7.622;2022-08-19T15:44:14;26.60;99.90
15115;DHT22;7658;51.456;7.622;2022-08-19T15:46:41;26.60;99.90
15115;DHT22;7658;51.456;7.622;2022-08-19T15:49:10;26.60;99.90
15115;DHT22;7658;51.456;7.622;2022-08-19T15:51:37;26.60;99.90
15115;DHT22;7658;51.456;7.622;2022-08-19T15:54:06;26.70;99.90
15115;DHT22;7658;51.456;7.622;2022-08-19T15:56:33;26.80;99.90
15115;DHT22;7658;51.456;7.622;2022-08-19T15:59:32;26.80;99.90
15115;DHT22;7658;51.456;7.622;2022-08-19T16:02:18;26.60;99.90
15115;DHT22;7658;51.456;7.622;2022-08-19T16:05:05;26.50;99.90
15115;DHT22;7658;51.456;7.622;2022-08-19T16:07:49;26.60;99.90